Time;durP1;ratioP1;P1;durP2;ratioP2;P2;SDS_P1;SDS_P2;PMS_P1;PMS_P2;Temp;Humidity;BMP_temperature;BMP_pressure;BME280_temperature;BME280_humidity;BME280_pressure;Samples;Min_cycle;Max_cycle;Signal;HPM_P1;HPM_P2
2023/03/29 00:00:44;;;;;;;13.93;8.75;;;9.10;99.90;;;;;;5052333;28;20095;-62
2023/03/29 00:03:12;;;;;;;12.95;8.45;;;9.10;99.90;;;;;;5053833;28;20045;-63
2023/03/29 00:05:40;;;;;;;13.00;8.48;;;9.10;99.90;;;;;;5052709;28;20400;-62
2023/03/29 00:08:06;;;;;;;10.10;7.40;;;9.10;99.90;;;;;;5054098;28;20068;-62
2023/03/29 00:10:33;;;;;;;14.70;8.10;;;9.10;99.90;;;;;;5054086;28;20056;-63
2023/03/29 00:13:00;;;;;;;12.40;8.93;;;9.10;99.90;;;;;;5053659;28;20052;-63
2023/03/29 00:15:27;;;;;;;11.88;8.43;;;9.20;99.90;;;;;;5054125;28;20041;-63
2023/03/29 00:17:54;;;;;;;13.15;8.90;;;9.20;99.90;;;;;;5053780;28;20044;-63
2023/03/29 00:20:21;;;;;;;14.63;8.20;;;9.20;99.90;;;;;;5052352;28;20040;-63
2023/03/29 00:22:47;;;;;;;15.50;8.48;;;9.20;99.90;;;;;;5052673;28;20036;-63
2023/03/29 00:25:14;;;;;;;11.50;7.95;;;9.20;99.90;;;;;;5053361;28;20103;-63
2023/03/29 00:27:41;;;;;;;14.25;7.93;;;9.20;99.90;;;;;;5052829;28;20073;-62
2023/03/29 00:30:08;;;;;;;11.35;7.65;;;9.20;99.90;;;;;;5052597;28;20104;-63
2023/03/29 00:32:35;;;;;;;13.88;8.15;;;9.20;99.90;;;;;;5053542;28;20477;-63
2023/03/29 00:35:04;;;;;;;13.50;7.75;;;9.20;99.90;;;;;;5052380;28;20048;-63
2023/03/29 00:37:31;;;;;;;12.57;7.20;;;9.20;99.90;;;;;;5052169;28;20045;-63
2023/03/29 00:39:58;;;;;;;11.25;7.47;;;9.20;99.90;;;;;;5052338;28;20075;-63
2023/03/29 00:42:25;;;;;;;14.23;7.60;;;9.30;99.90;;;;;;5053855;28;20465;-63
2023/03/29 00:44:52;;;;;;;11.52;6.78;;;9.30;99.90;;;;;;5053670;28;20049;-63
2023/03/29 00:47:20;;;;;;;10.32;6.68;;;9.30;99.90;;;;;;5053428;28;20045;-63
2023/03/29 00:49:47;;;;;;;11.35;6.82;;;9.30;99.90;;;;;;5052325;28;20044;-63
2023/03/29 00:52:13;;;;;;;9.95;6.95;;;9.30;99.90;;;;;;5053088;28;20396;-63
2023/03/29 00:54:42;;;;;;;10.70;6.75;;;9.30;99.90;;;;;;5037817;28;20131;-63
2023/03/29 00:57:08;;;;;;;11.13;6.40;;;9.30;99.90;;;;;;5057334;28;20037;-63
2023/03/29 00:59:35;;;;;;;9.55;6.15;;;9.30;99.90;;;;;;5057514;28;20041;-63
2023/03/29 01:02:02;;;;;;;11.18;6.35;;;9.30;99.90;;;;;;5057500;28;20041;-62
2023/03/29 01:04:29;;;;;;;9.38;6.75;;;9.30;99.90;;;;;;5057198;28;20056;-63
2023/03/29 01:06:56;;;;;;;9.45;5.88;;;9.30;99.90;;;;;;5057665;28;20350;-63
2023/03/29 01:09:23;;;;;;;8.82;6.13;;;9.40;99.90;;;;;;5055942;28;20476;-63
2023/03/29 01:11:50;;;;;;;7.75;5.97;;;9.40;99.90;;;;;;5039278;28;20049;-63
2023/03/29 01:14:17;;;;;;;8.70;6.07;;;9.40;99.90;;;;;;5056777;28;20049;-62
2023/03/29 01:16:44;;;;;;;9.23;5.93;;;9.40;99.90;;;;;;5055970;28;20045;-63
2023/03/29 01:19:12;;;;;;;8.95;6.40;;;9.40;99.90;;;;;;5055660;28;20099;-63
2023/03/29 01:21:39;;;;;;;9.23;6.90;;;9.40;99.90;;;;;;5056727;28;20069;-63
2023/03/29 01:24:06;;;;;;;12.77;7.15;;;9.40;99.90;;;;;;5055471;28;20057;-62
2023/03/29 01:26:33;;;;;;;9.30;6.97;;;9.40;99.90;;;;;;5055406;28;20045;-63
2023/03/29 01:29:00;;;;;;;11.63;7.35;;;9.40;99.90;;;;;;5056853;28;20124;-63
2023/03/29 01:31:27;;;;;;;9.50;7.60;;;9.40;99.90;;;;;;5055585;28;20519;-63
2023/03/29 01:33:53;;;;;;;8.40;6.82;;;9.40;99.90;;;;;;5055727;28;20103;-63
2023/03/29 01:36:20;;;;;;;8.50;6.45;;;9.40;99.90;;;;;;5055878;28;20071;-63
2023/03/29 01:38:47;;;;;;;10.43;7.28;;;9.40;99.90;;;;;;5057347;28;20037;-63
2023/03/29 01:41:14;;;;;;;9.38;6.82;;;9.40;99.90;;;;;;5055739;28;20055;-62
2023/03/29 01:43:40;;;;;;;7.57;6.75;;;9.40;99.90;;;;;;5055232;28;20454;-62
2023/03/29 01:46:07;;;;;;;8.27;6.85;;;9.40;99.90;;;;;;5055463;28;20056;-62
2023/03/29 01:48:34;;;;;;;10.00;7.28;;;9.40;99.90;;;;;;5056344;28;20055;-62
2023/03/29 01:51:03;;;;;;;9.23;6.38;;;9.40;99.90;;;;;;5055490;28;20041;-63
2023/03/29 01:53:30;;;;;;;9.57;6.63;;;9.40;99.90;;;;;;5056373;28;20091;-62
2023/03/29 01:55:57;;;;;;;9.20;6.60;;;9.40;99.90;;;;;;5056289;28;20045;-62
2023/03/29 01:58:25;;;;;;;8.55;5.85;;;9.40;99.90;;;;;;5054989;28;20033;-62
2023/03/29 02:00:54;;;;;;;9.10;6.30;;;9.40;99.90;;;;;;5055418;28;20049;-63
2023/03/29 02:03:21;;;;;;;7.82;6.13;;;9.40;99.90;;;;;;5056202;28;20061;-62
2023/03/29 02:05:48;;;;;;;9.73;6.70;;;9.40;99.90;;;;;;5055235;28;20625;-63
2023/03/29 02:08:15;;;;;;;6.88;5.70;;;9.40;99.90;;;;;;5054724;28;20053;-62
2023/03/29 02:10:41;;;;;;;11.65;6.15;;;9.40;99.90;;;;;;5054786;28;20049;-62
2023/03/29 02:13:10;;;;;;;9.38;6.90;;;9.40;99.90;;;;;;5054439;28;20060;-62
2023/03/29 02:15:37;;;;;;;8.60;6.35;;;9.30;99.90;;;;;;5055714;28;20132;-62
2023/03/29 02:18:05;;;;;;;9.93;7.00;;;9.30;99.90;;;;;;5056141;28;20086;-63
2023/03/29 02:20:32;;;;;;;8.57;6.55;;;9.30;99.90;;;;;;5054927;28;20052;-62
2023/03/29 02:23:00;;;;;;;9.68;6.78;;;9.20;99.90;;;;;;5054209;28;20530;-62
2023/03/29 02:25:28;;;;;;;10.13;6.57;;;9.20;99.90;;;;;;5055853;28;20060;-62
2023/03/29 02:27:55;;;;;;;9.88;6.85;;;9.20;99.90;;;;;;5054791;28;20095;-62
2023/03/29 02:30:22;;;;;;;10.55;7.13;;;9.10;99.90;;;;;;5054840;28;20106;-63
2023/03/29 02:32:49;;;;;;;8.32;6.47;;;9.10;99.90;;;;;;5055002;28;20049;-62
2023/03/29 02:35:16;;;;;;;8.30;6.45;;;9.10;99.90;;;;;;5055576;28;20044;-63
2023/03/29 02:37:43;;;;;;;10.05;6.82;;;9.10;99.90;;;;;;5054103;28;20040;-62
2023/03/29 02:40:11;;;;;;;8.50;6.30;;;9.10;99.90;;;;;;5037807;28;20045;-62
2023/03/29 02:42:38;;;;;;;11.75;7.03;;;9.10;99.90;;;;;;5055888;28;20055;-62
2023/03/29 02:45:05;;;;;;;9.38;6.82;;;9.20;99.90;;;;;;5055368;28;20388;-62
2023/03/29 02:47:32;;;;;;;9.55;6.60;;;9.20;99.90;;;;;;5053947;28;20090;-63
2023/03/29 02:49:59;;;;;;;10.23;6.55;;;9.20;99.90;;;;;;5053952;28;20121;-64
2023/03/29 02:52:26;;;;;;;8.73;6.28;;;9.20;99.90;;;;;;5055086;28;20047;-64
2023/03/29 02:54:53;;;;;;;8.63;6.07;;;9.30;99.90;;;;;;5053677;28;20094;-64
2023/03/29 02:57:25;;;;;;;9.82;6.55;;;9.20;99.90;;;;;;5037748;28;20090;-63
2023/03/29 02:59:52;;;;;;;7.47;6.35;;;9.30;99.90;;;;;;5055286;28;20111;-63
2023/03/29 03:02:19;;;;;;;10.10;6.63;;;9.30;99.90;;;;;;5053808;28;20120;-63
2023/03/29 03:04:46;;;;;;;8.10;5.93;;;9.30;99.90;;;;;;5055214;28;20041;-63
2023/03/29 03:07:12;;;;;;;9.38;6.00;;;9.30;99.90;;;;;;5055072;28;20129;-64
2023/03/29 03:09:40;;;;;;;10.45;6.50;;;9.30;99.90;;;;;;5053773;28;20065;-63
2023/03/29 03:12:07;;;;;;;7.50;6.38;;;9.40;99.90;;;;;;5053799;28;20080;-64
2023/03/29 03:14:34;;;;;;;9.43;6.90;;;9.40;99.90;;;;;;5053417;28;20045;-63
2023/03/29 03:17:01;;;;;;;9.10;6.35;;;9.40;99.90;;;;;;5053041;28;20033;-63
2023/03/29 03:19:31;;;;;;;10.57;7.55;;;9.40;99.90;;;;;;5037693;28;20067;-63
2023/03/29 03:21:58;;;;;;;11.32;7.30;;;9.50;99.90;;;;;;5053681;28;20079;-62
2023/03/29 03:24:26;;;;;;;10.45;7.63;;;9.50;99.90;;;;;;5053773;28;20079;-62
2023/03/29 03:26:55;;;;;;;12.52;7.70;;;9.50;99.90;;;;;;5053818;28;20041;-62
2023/03/29 03:29:23;;;;;;;12.15;7.90;;;9.50;99.90;;;;;;5053341;28;20052;-62
2023/03/29 03:32:11;;;;;;;11.38;7.95;;;9.50;99.90;;;;;;5054709;28;20484;-62
2023/03/29 03:34:59;;;;;;;11.00;8.10;;;9.60;99.90;;;;;;5039694;28;20140;-62
2023/03/29 03:37:26;;;;;;;12.70;8.50;;;9.60;99.90;;;;;;5053545;28;20506;-62
2023/03/29 03:39:53;;;;;;;12.23;8.77;;;9.60;99.90;;;;;;5053227;28;20037;-62
2023/03/29 03:42:21;;;;;;;11.52;8.27;;;9.60;99.90;;;;;;5053407;28;20068;-62
2023/03/29 03:44:48;;;;;;;12.05;8.32;;;9.60;99.90;;;;;;5053546;28;20076;-62
2023/03/29 03:47:38;;;;;;;11.90;8.02;;;9.60;99.90;;;;;;5051681;28;20057;-62
2023/03/29 03:50:31;;;;;;;13.15;8.35;;;9.60;99.90;;;;;;5053377;28;20063;-62
2023/03/29 03:52:59;;;;;;;11.93;8.32;;;9.60;99.90;;;;;;5053148;28;20060;-63
2023/03/29 03:55:36;;;;;;;11.30;8.20;;;9.60;99.90;;;;;;5053137;28;20051;-62
2023/03/29 03:58:13;;;;;;;10.80;7.93;;;9.50;99.90;;;;;;5051939;28;20059;-62
2023/03/29 04:00:40;;;;;;;10.55;8.07;;;9.50;99.90;;;;;;5051456;28;20403;-62
2023/03/29 04:03:32;;;;;;;11.02;8.40;;;9.50;99.90;;;;;;5038268;28;20033;-62
2023/03/29 04:05:59;;;;;;;14.65;8.43;;;9.50;99.90;;;;;;5051164;28;20507;-62
2023/03/29 04:08:32;;;;;;;11.77;8.15;;;9.50;99.90;;;;;;5051341;28;20059;-62
2023/03/29 04:11:24;;;;;;;10.52;8.30;;;9.50;99.90;;;;;;5051151;28;20056;-63
2023/03/29 04:13:52;;;;;;;12.90;8.15;;;9.50;99.90;;;;;;5052157;28;20132;-63
2023/03/29 04:16:44;;;;;;;11.48;8.30;;;9.50;99.90;;;;;;5053051;28;20099;-63
2023/03/29 04:19:34;;;;;;;10.48;7.80;;;9.50;99.90;;;;;;5053444;28;20488;-63
2023/03/29 04:22:01;;;;;;;12.23;9.13;;;9.50;99.90;;;;;;5052533;28;20048;-63
2023/03/29 04:24:28;;;;;;;12.18;8.88;;;9.50;99.90;;;;;;5052327;28;20423;-63
2023/03/29 04:27:17;;;;;;;11.88;8.50;;;9.50;99.90;;;;;;5052283;28;20098;-63
2023/03/29 04:29:44;;;;;;;10.13;8.10;;;9.50;99.90;;;;;;5051927;28;20064;-63
2023/03/29 04:32:19;;;;;;;11.52;8.40;;;9.40;99.90;;;;;;5052428;28;20098;-63
2023/03/29 04:35:03;;;;;;;12.23;8.30;;;9.40;99.90;;;;;;5052169;28;20203;-63
2023/03/29 04:37:30;;;;;;;11.00;8.10;;;9.40;99.90;;;;;;5052175;28;20041;-63
2023/03/29 04:40:03;;;;;;;11.75;8.35;;;9.40;99.90;;;;;;5052510;28;20477;-63
2023/03/29 04:42:43;;;;;;;14.18;8.88;;;9.40;99.90;;;;;;5052352;28;20071;-63
2023/03/29 04:45:12;;;;;;;12.13;9.00;;;9.40;99.90;;;;;;5052329;28;20443;-63
2023/03/29 04:48:01;;;;;;;14.70;9.38;;;9.40;99.90;;;;;;5053840;28;20059;-62
2023/03/29 04:50:28;;;;;;;13.35;9.18;;;9.40;99.90;;;;;;5052065;28;20049;-62
2023/03/29 04:52:55;;;;;;;15.07;10.50;;;9.40;99.90;;;;;;5051702;28;20049;-62
2023/03/29 04:55:23;;;;;;;12.13;9.68;;;9.40;99.90;;;;;;5035829;28;20045;-62
2023/03/29 04:58:00;;;;;;;13.13;9.43;;;9.40;99.90;;;;;;5052069;28;20127;-62
2023/03/29 05:00:32;;;;;;;17.95;11.65;;;9.40;99.90;;;;;;5053607;28;20040;-62
2023/03/29 05:03:05;;;;;;;15.95;9.82;;;9.40;99.90;;;;;;5052439;28;20037;-62
2023/03/29 05:05:37;;;;;;;13.55;9.25;;;9.40;99.90;;;;;;5053519;28;20062;-62
2023/03/29 05:08:06;;;;;;;17.17;9.93;;;9.40;99.90;;;;;;5051689;28;20110;-63
2023/03/29 05:10:42;;;;;;;15.05;9.60;;;9.40;99.90;;;;;;5051637;28;20059;-62
2023/03/29 05:13:10;;;;;;;13.63;8.48;;;9.40;99.90;;;;;;5035085;28;20053;-62
2023/03/29 05:15:38;;;;;;;11.65;7.70;;;9.40;99.90;;;;;;5051817;28;20084;-62
2023/03/29 05:18:07;;;;;;;15.75;8.55;;;9.40;99.90;;;;;;5051656;28;20056;-62
2023/03/29 05:20:34;;;;;;;15.43;8.88;;;9.40;99.90;;;;;;5051668;28;20139;-62
2023/03/29 05:23:02;;;;;;;15.18;9.48;;;9.40;99.90;;;;;;5052338;28;20041;-62
2023/03/29 05:25:49;;;;;;;15.55;8.13;;;9.30;99.90;;;;;;5052555;28;20389;-62
2023/03/29 05:28:16;;;;;;;16.83;8.50;;;9.30;99.90;;;;;;5051374;28;20077;-62
2023/03/29 05:30:43;;;;;;;12.95;7.47;;;9.30;99.90;;;;;;5051774;28;20136;-62
2023/03/29 05:33:28;;;;;;;13.57;7.55;;;9.30;99.90;;;;;;5051934;28;20045;-63
2023/03/29 05:35:55;;;;;;;12.80;7.03;;;9.30;99.90;;;;;;5051472;28;20040;-62
2023/03/29 05:38:22;;;;;;;12.85;7.10;;;9.30;99.90;;;;;;5052040;28;20133;-64
2023/03/29 05:40:51;;;;;;;12.98;7.97;;;9.20;99.90;;;;;;5053891;28;20047;-63
2023/03/29 05:43:38;;;;;;;14.13;8.30;;;9.20;99.90;;;;;;5056425;28;20071;-63
2023/03/29 05:46:06;;;;;;;17.63;8.38;;;9.20;99.90;;;;;;5056472;28;20123;-62
2023/03/29 05:48:35;;;;;;;11.48;7.97;;;9.20;99.90;;;;;;5039014;28;20087;-63
2023/03/29 05:51:02;;;;;;;14.75;8.18;;;9.20;99.90;;;;;;5055435;28;20495;-62
2023/03/29 05:53:29;;;;;;;17.85;7.72;;;9.20;99.90;;;;;;5055167;28;20048;-63
2023/03/29 05:55:56;;;;;;;15.80;8.40;;;9.20;99.90;;;;;;5055275;28;20132;-63
2023/03/29 05:58:27;;;;;;;12.23;7.38;;;9.20;99.90;;;;;;5055090;28;20037;-63
2023/03/29 06:00:54;;;;;;;13.20;6.78;;;9.20;99.90;;;;;;5054868;28;20041;-63
2023/03/29 06:03:41;;;;;;;14.45;6.88;;;9.20;99.90;;;;;;5055235;28;20041;-63
2023/03/29 06:06:09;;;;;;;11.23;6.30;;;9.20;99.90;;;;;;5056204;28;20040;-63
2023/03/29 06:08:36;;;;;;;14.40;6.65;;;9.30;99.90;;;;;;5055126;28;20550;-63
2023/03/29 06:11:14;;;;;;;12.00;6.65;;;9.30;99.90;;;;;;5055448;28;20041;-63
2023/03/29 06:13:59;;;;;;;11.13;6.40;;;9.30;99.90;;;;;;5055854;28;20068;-63
2023/03/29 06:16:26;;;;;;;11.93;6.20;;;9.30;99.90;;;;;;5056009;28;20468;-63
2023/03/29 06:18:53;;;;;;;21.58;13.95;;;9.40;99.90;;;;;;5056297;28;20079;-63
2023/03/29 06:21:21;;;;;;;14.27;8.45;;;9.40;99.90;;;;;;5054753;28;20044;-63
2023/03/29 06:23:48;;;;;;;13.63;7.95;;;9.50;99.90;;;;;;5056210;28;20116;-62
2023/03/29 06:26:16;;;;;;;10.00;6.38;;;9.50;99.90;;;;;;5055031;28;20067;-63
2023/03/29 06:28:45;;;;;;;9.18;6.32;;;9.50;99.90;;;;;;5054292;28;20073;-62
2023/03/29 06:31:12;;;;;;;11.38;5.97;;;9.60;99.90;;;;;;5055187;28;20045;-62
2023/03/29 06:33:41;;;;;;;11.38;6.63;;;9.60;99.90;;;;;;5054310;28;20045;-62
2023/03/29 06:36:33;;;;;;;9.63;6.05;;;9.70;99.90;;;;;;5064374;28;20110;-63
2023/03/29 06:39:05;;;;;;;13.32;5.97;;;9.80;99.90;;;;;;5054383;28;20208;-62
2023/03/29 06:41:51;;;;;;;10.93;6.47;;;9.80;99.90;;;;;;5054896;28;20049;-62
2023/03/29 06:44:40;;;;;;;11.65;5.82;;;9.90;99.90;;;;;;5057988;28;20061;-62
2023/03/29 06:47:16;;;;;;;9.88;5.55;;;10.00;99.90;;;;;;5038957;28;20567;-63
2023/03/29 06:49:43;;;;;;;13.70;6.05;;;10.10;99.90;;;;;;5054094;28;20095;-63
2023/03/29 06:52:26;;;;;;;10.77;6.10;;;10.20;99.90;;;;;;5053609;28;20507;-63
2023/03/29 06:54:53;;;;;;;11.00;6.22;;;10.20;99.90;;;;;;5037899;28;20503;-63
2023/03/29 06:57:22;;;;;;;10.23;5.30;;;10.20;99.90;;;;;;5053972;28;20496;-63
2023/03/29 06:59:49;;;;;;;14.88;6.28;;;10.30;99.90;;;;;;5054766;28;20067;-62
2023/03/29 07:02:36;;;;;;;13.70;5.90;;;10.30;99.90;;;;;;5055431;28;20123;-63
2023/03/29 07:05:12;;;;;;;11.55;6.13;;;10.40;99.90;;;;;;5038595;28;20079;-61
2023/03/29 07:07:54;;;;;;;9.07;5.78;;;10.50;99.90;;;;;;5053940;28;20499;-63
2023/03/29 07:10:41;;;;;;;11.45;5.80;;;10.50;99.90;;;;;;5055300;28;20057;-62
2023/03/29 07:13:27;;;;;;;9.52;5.88;;;10.50;99.90;;;;;;5054757;28;20056;-62
2023/03/29 07:15:57;;;;;;;10.10;5.65;;;10.50;99.90;;;;;;5054229;28;20041;-63
2023/03/29 07:18:44;;;;;;;10.10;5.45;;;10.50;99.90;;;;;;5054553;28;20049;-63
2023/03/29 07:21:19;;;;;;;11.82;5.20;;;10.50;99.90;;;;;;5053811;28;20116;-63
2023/03/29 07:23:46;;;;;;;8.73;4.55;;;10.50;99.90;;;;;;5053534;28;20045;-63
2023/03/29 07:26:15;;;;;;;15.50;4.70;;;10.40;99.90;;;;;;5053564;28;20037;-63
2023/03/29 07:28:56;;;;;;;9.90;4.88;;;10.50;99.90;;;;;;5053721;28;20492;-63
2023/03/29 07:31:23;;;;;;;9.75;4.88;;;10.40;99.90;;;;;;5053357;28;20111;-63
2023/03/29 07:33:59;;;;;;;12.48;5.43;;;10.40;99.90;;;;;;5053806;28;20136;-63
2023/03/29 07:36:27;;;;;;;10.88;5.38;;;10.40;99.90;;;;;;5053287;28;20068;-63
2023/03/29 07:38:55;;;;;;;8.52;5.35;;;10.50;99.90;;;;;;5054257;28;20045;-63
2023/03/29 07:41:23;;;;;;;9.35;5.22;;;10.50;99.90;;;;;;5069207;28;20499;-63
2023/03/29 07:44:03;;;;;;;10.47;3.93;;;10.60;99.90;;;;;;5052992;28;20038;-64
2023/03/29 07:46:31;;;;;;;8.98;4.53;;;10.60;99.90;;;;;;5033330;28;20638;-63
2023/03/29 07:48:58;;;;;;;6.53;4.13;;;10.70;99.90;;;;;;5033010;28;20041;-63
2023/03/29 07:51:25;;;;;;;9.70;3.95;;;10.70;99.90;;;;;;5016336;28;20042;-63
2023/03/29 07:54:05;;;;;;;7.82;3.97;;;10.70;99.90;;;;;;5033069;28;20047;-63
2023/03/29 07:56:53;;;;;;;7.38;3.42;;;10.80;99.90;;;;;;5032890;28;20042;-62
2023/03/29 07:59:27;;;;;;;6.80;3.20;;;10.80;99.90;;;;;;5033807;28;20037;-63
2023/03/29 08:02:03;;;;;;;7.53;3.58;;;10.90;99.90;;;;;;5033093;28;20287;-63
2023/03/29 08:04:36;;;;;;;10.85;4.50;;;10.90;99.90;;;;;;5032699;28;20045;-62
2023/03/29 08:07:15;;;;;;;5.88;3.17;;;10.90;99.90;;;;;;5034044;28;20087;-62
2023/03/29 08:09:59;;;;;;;11.40;3.50;;;11.00;99.90;;;;;;5033202;28;20128;-63
2023/03/29 08:12:47;;;;;;;9.68;3.42;;;11.10;99.90;;;;;;5032202;28;20077;-63
2023/03/29 08:15:15;;;;;;;8.10;3.30;;;11.20;99.90;;;;;;5032401;28;20072;-63
2023/03/29 08:17:42;;;;;;;11.35;3.10;;;11.30;99.90;;;;;;5032804;28;20095;-63
2023/03/29 08:20:09;;;;;;;13.93;3.38;;;11.30;99.90;;;;;;5032640;28;20045;-63
2023/03/29 08:22:38;;;;;;;9.32;3.20;;;11.30;99.90;;;;;;5032764;28;20128;-63
2023/03/29 08:25:38;;;;;;;7.50;3.20;;;11.40;99.90;;;;;;5043665;28;20041;-63
2023/03/29 08:28:05;;;;;;;5.28;3.20;;;11.50;99.90;;;;;;5032594;28;20045;-63
2023/03/29 08:30:40;;;;;;;7.88;3.53;;;11.60;99.90;;;;;;5032753;28;20132;-63
2023/03/29 08:33:07;;;;;;;8.75;3.70;;;11.60;99.90;;;;;;5032478;28;20049;-63
2023/03/29 08:35:34;;;;;;;6.82;3.65;;;11.70;99.90;;;;;;5032378;28;20435;-63
2023/03/29 08:38:23;;;;;;;6.43;3.42;;;11.60;99.90;;;;;;5032405;28;20048;-63
2023/03/29 08:40:51;;;;;;;7.75;3.35;;;11.60;99.90;;;;;;5032553;28;20056;-63
2023/03/29 08:43:19;;;;;;;8.25;3.63;;;11.60;99.90;;;;;;5032626;28;20550;-63
2023/03/29 08:46:05;;;;;;;7.43;4.72;;;11.50;99.90;;;;;;5032501;28;20469;-63
2023/03/29 08:48:32;;;;;;;6.70;4.20;;;11.50;99.90;;;;;;5031983;28;20405;-63
2023/03/29 08:51:02;;;;;;;5.75;3.75;;;11.40;99.90;;;;;;5032301;28;20107;-63
2023/03/29 08:53:30;;;;;;;5.45;3.40;;;11.40;99.90;;;;;;5032022;28;20069;-63
2023/03/29 08:56:20;;;;;;;5.43;3.72;;;11.40;99.90;;;;;;5033556;28;20100;-63
2023/03/29 08:59:06;;;;;;;6.57;3.58;;;11.50;99.90;;;;;;5034117;28;20060;-63
2023/03/29 09:01:37;;;;;;;6.75;3.40;;;11.50;99.90;;;;;;5032488;28;20045;-63
2023/03/29 09:04:04;;;;;;;8.77;3.50;;;11.50;99.90;;;;;;5033784;28;20156;-63
2023/03/29 09:06:53;;;;;;;5.85;3.20;;;11.60;99.90;;;;;;5023320;28;20049;-63
2023/03/29 09:09:25;;;;;;;5.05;3.10;;;11.60;99.90;;;;;;5032027;28;20068;-63
2023/03/29 09:11:53;;;;;;;7.15;3.47;;;11.60;99.90;;;;;;5032590;28;20042;-62
2023/03/29 09:14:20;;;;;;;4.22;2.63;;;11.70;99.90;;;;;;5031685;28;20045;-62
2023/03/29 09:16:48;;;;;;;5.57;2.90;;;11.70;99.90;;;;;;5036280;28;20057;-62
2023/03/29 09:19:15;;;;;;;3.92;2.60;;;11.80;99.90;;;;;;5036332;28;20130;-62
2023/03/29 09:21:42;;;;;;;6.03;2.47;;;11.90;99.90;;;;;;5035859;28;20069;-62
2023/03/29 09:24:10;;;;;;;4.70;3.30;;;11.90;99.90;;;;;;5036265;28;20068;-65
2023/03/29 09:26:56;;;;;;;;;;;11.90;99.90;;;;;;5059096;28;20135;-62
2023/03/29 09:29:28;;;;;;;3.97;1.88;;;12.00;99.90;;;;;;5057443;28;19921;-62
2023/03/29 09:31:55;;;;;;;3.40;1.63;;;12.00;99.90;;;;;;5048044;28;20052;-62
2023/03/29 09:34:23;;;;;;;4.80;1.48;;;12.00;99.90;;;;;;5046263;28;20087;-62
2023/03/29 09:36:55;;;;;;;3.25;1.30;;;12.10;99.90;;;;;;5057063;28;20102;-63
2023/03/29 09:39:22;;;;;;;12.07;1.63;;;12.10;99.90;;;;;;5055564;28;20077;-63
2023/03/29 09:41:55;;;;;;;12.65;1.60;;;12.10;99.90;;;;;;5056047;28;20429;-63
2023/03/29 09:44:23;;;;;;;4.95;1.20;;;12.20;99.90;;;;;;5055285;28;20123;-63
2023/03/29 09:47:02;;;;;;;2.70;1.50;;;12.20;99.90;;;;;;5052846;28;20110;-63
2023/03/29 09:49:31;;;;;;;1.83;1.00;;;12.30;99.90;;;;;;5043514;28;20061;-63
2023/03/29 09:51:58;;;;;;;2.10;1.20;;;12.30;99.90;;;;;;5035469;28;20045;-62
2023/03/29 09:54:25;;;;;;;5.78;2.67;;;12.30;99.90;;;;;;5035747;28;20049;-62
2023/03/29 09:57:10;;;;;;;6.85;1.88;;;12.30;99.90;;;;;;5037326;28;20048;-63
2023/03/29 09:59:37;;;;;;;2.13;1.15;;;12.30;99.90;;;;;;5037484;28;20041;-63
2023/03/29 10:02:04;;;;;;;4.20;1.17;;;12.30;99.90;;;;;;5035702;28;20043;-63
2023/03/29 10:04:32;;;;;;;4.78;1.48;;;12.40;99.90;;;;;;5034891;28;20075;-62
2023/03/29 10:06:59;;;;;;;9.18;5.22;;;12.40;99.90;;;;;;5035489;28;20156;-62
2023/03/29 10:09:26;;;;;;;5.30;1.63;;;12.50;99.90;;;;;;5035272;28;20052;-62
2023/03/29 10:12:03;;;;;;;14.68;3.15;;;12.50;99.90;;;;;;5034822;28;20377;-62
2023/03/29 10:14:31;;;;;;;6.85;1.63;;;12.60;99.90;;;;;;5034600;28;20057;-63
2023/03/29 10:16:58;;;;;;;3.30;1.50;;;12.60;99.90;;;;;;5036659;28;20042;-62
2023/03/29 10:19:25;;;;;;;2.47;1.30;;;12.70;99.90;;;;;;5036089;28;20046;-63
2023/03/29 10:21:53;;;;;;;9.63;2.03;;;12.80;99.90;;;;;;5036434;28;20050;-62
2023/03/29 10:24:20;;;;;;;4.18;1.85;;;12.80;99.90;;;;;;5036056;28;20534;-62
2023/03/29 10:26:48;;;;;;;9.40;2.20;;;12.90;99.90;;;;;;5034672;28;20050;-63
2023/03/29 10:29:14;;;;;;;6.13;2.42;;;13.00;99.90;;;;;;5036323;28;20049;-63
2023/03/29 10:31:42;;;;;;;11.35;2.50;;;13.00;99.90;;;;;;5036229;28;20045;-63
2023/03/29 10:34:08;;;;;;;5.50;2.25;;;12.90;99.90;;;;;;5038244;28;20094;-63
2023/03/29 10:36:35;;;;;;;15.00;2.90;;;12.90;99.90;;;;;;5050694;28;20071;-63
2023/03/29 10:39:02;;;;;;;10.73;2.90;;;12.90;99.90;;;;;;5036773;28;20089;-63
2023/03/29 10:41:32;;;;;;;8.20;2.85;;;12.80;99.90;;;;;;5036198;28;20048;-62
2023/03/29 10:43:59;;;;;;;10.30;3.05;;;12.80;99.90;;;;;;5035796;28;20041;-64
2023/03/29 10:46:26;;;;;;;8.15;3.28;;;12.80;99.90;;;;;;5036151;28;20125;-63
2023/03/29 10:48:53;;;;;;;9.63;2.95;;;12.80;99.90;;;;;;5035271;28;20503;-63
2023/03/29 10:51:20;;;;;;;8.00;3.13;;;12.80;99.90;;;;;;5034672;28;20044;-63
2023/03/29 10:53:46;;;;;;;9.45;3.33;;;12.80;99.90;;;;;;5035596;28;20164;-62
2023/03/29 10:56:13;;;;;;;14.18;3.40;;;12.80;99.90;;;;;;5035301;28;20436;-63
2023/03/29 10:58:40;;;;;;;13.07;3.47;;;12.80;99.90;;;;;;5035436;28;20117;-63
2023/03/29 11:01:07;;;;;;;14.20;3.97;;;12.80;99.90;;;;;;5035822;28;20068;-63
2023/03/29 11:03:34;;;;;;;8.77;2.65;;;12.80;99.90;;;;;;5035180;28;20037;-62
2023/03/29 11:06:01;;;;;;;6.15;3.20;;;12.80;99.90;;;;;;5038011;28;20144;-62
2023/03/29 11:08:28;;;;;;;8.15;3.08;;;12.80;99.90;;;;;;5036721;28;20065;-62
2023/03/29 11:10:57;;;;;;;8.88;2.97;;;12.80;99.90;;;;;;5054270;28;20103;-62
2023/03/29 11:13:26;;;;;;;9.50;3.90;;;12.80;99.90;;;;;;5052848;28;20045;-62
2023/03/29 11:15:52;;;;;;;9.90;3.90;;;12.80;99.90;;;;;;5035148;28;20047;-62
2023/03/29 11:18:19;;;;;;;10.90;3.58;;;12.80;99.90;;;;;;5035114;28;20034;-63
2023/03/29 11:20:46;;;;;;;15.15;5.22;;;12.80;99.90;;;;;;5047438;28;20040;-62
2023/03/29 11:23:12;;;;;;;15.38;4.97;;;12.70;99.90;;;;;;5043107;28;20060;-63
2023/03/29 11:25:39;;;;;;;10.65;5.00;;;12.70;99.90;;;;;;5041349;28;20475;-63
2023/03/29 11:28:06;;;;;;;12.65;4.72;;;12.70;99.90;;;;;;5052844;28;20175;-62
2023/03/29 11:30:34;;;;;;;15.15;5.03;;;12.80;99.90;;;;;;5054026;28;20040;-63
2023/03/29 11:33:01;;;;;;;12.60;4.68;;;12.80;99.90;;;;;;5052781;28;20120;-62
2023/03/29 11:35:28;;;;;;;13.70;4.60;;;12.90;99.90;;;;;;5052000;28;20079;-63
2023/03/29 11:37:55;;;;;;;9.70;4.10;;;13.00;99.90;;;;;;5052750;28;20045;-62
2023/03/29 11:40:22;;;;;;;11.32;4.65;;;13.10;99.90;;;;;;5053831;28;20052;-62
2023/03/29 11:42:48;;;;;;;15.48;4.10;;;13.10;99.90;;;;;;5053803;28;20067;-62
2023/03/29 11:45:15;;;;;;;12.18;3.95;;;13.20;99.90;;;;;;5052436;28;20051;-62
2023/03/29 11:47:43;;;;;;;12.73;3.55;;;13.20;99.90;;;;;;5053886;28;20427;-62
2023/03/29 11:50:10;;;;;;;30.17;4.63;;;13.30;99.90;;;;;;5053750;28;20045;-62
2023/03/29 11:52:37;;;;;;;17.00;4.55;;;13.40;99.90;;;;;;5053704;28;20068;-62
2023/03/29 11:55:04;;;;;;;26.63;4.80;;;13.40;99.90;;;;;;5053524;28;20041;-62
2023/03/29 11:57:31;;;;;;;12.85;3.78;;;13.50;99.90;;;;;;5053359;28;20041;-63
2023/03/29 11:59:58;;;;;;;14.30;3.90;;;13.50;99.90;;;;;;5052193;28;20048;-62
2023/03/29 12:02:26;;;;;;;12.05;3.50;;;13.50;99.90;;;;;;5053403;28;20087;-62
2023/03/29 12:04:53;;;;;;;12.25;4.00;;;13.50;99.90;;;;;;5052619;28;20048;-62
2023/03/29 12:07:19;;;;;;;15.52;4.50;;;13.50;99.90;;;;;;5053373;28;20501;-62
2023/03/29 12:09:48;;;;;;;20.75;10.55;;;13.50;99.90;;;;;;5053333;28;20115;-62
2023/03/29 12:12:15;;;;;;;15.40;4.30;;;13.50;99.90;;;;;;5052928;28;20049;-62
2023/03/29 12:14:42;;;;;;;13.60;4.43;;;13.50;99.90;;;;;;5053411;28;20067;-62
2023/03/29 12:17:09;;;;;;;15.55;3.97;;;13.50;99.90;;;;;;5053281;28;20037;-62
2023/03/29 12:19:37;;;;;;;16.27;4.05;;;13.50;99.90;;;;;;5052460;28;20053;-62
2023/03/29 12:22:09;;;;;;;14.50;3.88;;;13.50;99.90;;;;;;5053074;28;20563;-62
2023/03/29 12:24:39;;;;;;;12.20;3.47;;;13.60;99.90;;;;;;5052013;28;20060;-62
2023/03/29 12:27:07;;;;;;;13.05;4.00;;;13.70;99.90;;;;;;5053065;28;20056;-63
2023/03/29 12:29:34;;;;;;;14.98;3.92;;;13.90;99.90;;;;;;5052973;28;20040;-62
2023/03/29 12:32:00;;;;;;;10.65;3.08;;;14.00;99.90;;;;;;5051804;28;20053;-62
2023/03/29 12:34:39;;;;;;;14.20;3.58;;;14.20;99.90;;;;;;5051439;28;20043;-62
2023/03/29 12:37:30;;;;;;;13.40;3.15;;;14.30;99.90;;;;;;5052730;28;20053;-62
2023/03/29 12:40:23;;;;;;;10.35;2.80;;;14.40;99.90;;;;;;5059770;28;20128;-62
2023/03/29 12:43:19;;;;;;;13.55;3.47;;;14.30;99.90;;;;;;5050995;28;20049;-62
2023/03/29 12:46:25;;;;;;;9.70;3.20;;;14.30;99.90;;;;;;5051459;28;20139;-62
2023/03/29 12:48:52;;;;;;;14.35;3.45;;;14.20;99.90;;;;;;5050725;28;20270;-62
2023/03/29 12:51:19;;;;;;;13.02;3.58;;;14.20;99.90;;;;;;5042081;28;20390;-63
2023/03/29 12:53:45;;;;;;;12.00;3.28;;;14.30;99.90;;;;;;5033563;28;20092;-62
2023/03/29 12:56:12;;;;;;;13.48;3.40;;;14.40;99.90;;;;;;5033745;28;20080;-63
2023/03/29 12:58:40;;;;;;;10.57;3.13;;;14.50;99.90;;;;;;5033616;28;20458;-63
2023/03/29 13:01:07;;;;;;;13.63;3.55;;;14.60;99.90;;;;;;5033542;28;20116;-63
2023/03/29 13:03:34;;;;;;;20.10;3.85;;;14.70;99.90;;;;;;5041146;28;20480;-63